sensor_id;sensor_type;location;lat;lon;timestamp;pressure;altitude;pressure_sealevel;temperature;humidity
39265;BME280;42646;51.910;7.724;2023-04-02T00:02:26;100402.22;;;5.77;100.00
39265;BME280;42646;51.910;7.724;2023-04-02T00:08:28;100411.13;;;5.76;100.00
39265;BME280;42646;51.910;7.724;2023-04-02T00:11:06;100416.84;;;5.70;100.00
39265;BME280;42646;51.910;7.724;2023-04-02T00:13:37;100412.03;;;5.63;100.00
39265;BME280;42646;51.910;7.724;2023-04-02T00:16:11;100416.84;;;5.70;100.00
39265;BME280;42646;51.910;7.724;2023-04-02T00:18:42;100428.69;;;5.64;100.00
39265;BME280;42646;51.910;7.724;2023-04-02T00:21:14;100432.63;;;5.58;100.00
39265;BME280;42646;51.910;7.724;2023-04-02T00:23:45;100439.69;;;5.58;100.00
39265;BME280;42646;51.910;7.724;2023-04-02T00:26:24;100443.38;;;5.55;100.00
39265;BME280;42646;51.910;7.724;2023-04-02T00:28:55;100449.50;;;5.56;100.00
39265;BME280;42646;51.910;7.724;2023-04-02T00:31:24;100447.69;;;5.56;100.00
39265;BME280;42646;51.910;7.724;2023-04-02T00:33:54;100452.25;;;5.54;100.00
39265;BME280;42646;51.910;7.724;2023-04-02T00:36:24;100463.78;;;5.53;100.00
39265;BME280;42646;51.910;7.724;2023-04-02T00:38:56;100462.59;;;5.57;100.00
39265;BME280;42646;51.910;7.724;2023-04-02T00:41:26;100463.78;;;5.53;100.00
39265;BME280;42646;51.910;7.724;2023-04-02T00:43:57;100474.53;;;5.50;100.00
39265;BME280;42646;51.910;7.724;2023-04-02T00:46:29;100473.81;;;5.48;100.00
39265;BME280;42646;51.910;7.724;2023-04-02T00:49:02;100484.88;;;5.53;100.00
39265;BME280;42646;51.910;7.724;2023-04-02T00:51:35;100487.97;;;5.47;100.00
39265;BME280;42646;51.910;7.724;2023-04-02T00:54:09;100488.91;;;5.46;100.00
39265;BME280;42646;51.910;7.724;2023-04-02T00:56:43;100506.47;;;5.34;100.00
39265;BME280;42646;51.910;7.724;2023-04-02T00:59:18;100507.63;;;5.30;100.00
39265;BME280;42646;51.910;7.724;2023-04-02T01:01:51;100509.53;;;5.28;100.00
39265;BME280;42646;51.910;7.724;2023-04-02T01:04:30;100509.53;;;5.28;100.00
39265;BME280;42646;51.910;7.724;2023-04-02T01:07:03;100516.47;;;5.29;100.00
39265;BME280;42646;51.910;7.724;2023-04-02T01:09:58;100516.16;;;5.21;100.00
39265;BME280;42646;51.910;7.724;2023-04-02T01:12:43;100524.81;;;5.23;100.00
39265;BME280;42646;51.910;7.724;2023-04-02T01:15:17;100530.72;;;5.14;100.00
39265;BME280;42646;51.910;7.724;2023-04-02T01:18:02;100538.09;;;5.09;100.00
39265;BME280;42646;51.910;7.724;2023-04-02T01:23:35;100542.53;;;5.08;100.00
39265;BME280;42646;51.910;7.724;2023-04-02T01:26:10;100550.66;;;5.18;100.00
39265;BME280;42646;51.910;7.724;2023-04-02T01:29:00;100569.34;;;5.02;100.00
39265;BME280;42646;51.910;7.724;2023-04-02T01:31:29;100567.66;;;5.01;100.00
39265;BME280;42646;51.910;7.724;2023-04-02T01:33:59;100571.78;;;5.05;100.00
39265;BME280;42646;51.910;7.724;2023-04-02T01:36:35;100578.84;;;5.05;100.00
39265;BME280;42646;51.910;7.724;2023-04-02T01:39:14;100580.53;;;4.93;100.00
39265;BME280;42646;51.910;7.724;2023-04-02T01:41:49;100583.78;;;4.97;100.00
39265;BME280;42646;51.910;7.724;2023-04-02T01:44:24;100594.66;;;4.92;100.00
39265;BME280;42646;51.910;7.724;2023-04-02T01:46:53;100599.56;;;4.84;100.00
39265;BME280;42646;51.910;7.724;2023-04-02T01:49:24;100601.38;;;4.83;100.00
39265;BME280;42646;51.910;7.724;2023-04-02T01:51:56;100600.41;;;4.85;100.00
39265;BME280;42646;51.910;7.724;2023-04-02T01:54:29;100610.97;;;4.85;100.00
39265;BME280;42646;51.910;7.724;2023-04-02T01:56:56;100612.66;;;4.86;100.00
39265;BME280;42646;51.910;7.724;2023-04-02T01:59:25;100618.03;;;4.84;100.00
39265;BME280;42646;51.910;7.724;2023-04-02T02:02:01;100616.22;;;4.85;100.00
39265;BME280;42646;51.910;7.724;2023-04-02T02:04:31;100622.56;;;4.82;100.00
39265;BME280;42646;51.910;7.724;2023-04-02T02:07:00;100623.41;;;4.82;100.00
39265;BME280;42646;51.910;7.724;2023-04-02T02:09:32;100635.34;;;4.88;100.00
39265;BME280;42646;51.910;7.724;2023-04-02T02:12:02;100636.06;;;4.90;100.00
39265;BME280;42646;51.910;7.724;2023-04-02T02:14:32;100638.38;;;4.82;100.00
39265;BME280;42646;51.910;7.724;2023-04-02T02:17:01;100648.94;;;4.82;100.00
39265;BME280;42646;51.910;7.724;2023-04-02T02:19:42;100661.44;;;4.78;100.00
39265;BME280;42646;51.910;7.724;2023-04-02T02:22:13;100663.53;;;4.73;100.00
39265;BME280;42646;51.910;7.724;2023-04-02T02:24:44;100668.91;;;4.72;100.00
39265;BME280;42646;51.910;7.724;2023-04-02T02:27:41;100665.84;;;4.65;100.00
39265;BME280;42646;51.910;7.724;2023-04-02T02:30:15;100677.44;;;4.63;100.00
39265;BME280;42646;51.910;7.724;2023-04-02T02:32:51;100678.56;;;4.59;100.00
39265;BME280;42646;51.910;7.724;2023-04-02T02:35:25;100679.53;;;4.58;100.00
39265;BME280;42646;51.910;7.724;2023-04-02T02:38:05;100682.34;;;4.54;100.00
39265;BME280;42646;51.910;7.724;2023-04-02T02:40:41;100690.47;;;4.51;100.00
39265;BME280;42646;51.910;7.724;2023-04-02T02:43:12;100701.06;;;4.50;100.00
39265;BME280;42646;51.910;7.724;2023-04-02T02:45:44;100706.53;;;4.47;100.00
39265;BME280;42646;51.910;7.724;2023-04-02T02:48:17;100718.22;;;4.43;100.00
39265;BME280;42646;51.910;7.724;2023-04-02T02:50:47;100728.19;;;4.38;100.00
39265;BME280;42646;51.910;7.724;2023-04-02T02:53:21;100722.28;;;4.34;100.00
39265;BME280;42646;51.910;7.724;2023-04-02T02:55:54;100722.84;;;4.39;100.00
39265;BME280;42646;51.910;7.724;2023-04-02T02:58:31;100732.25;;;4.29;100.00
39265;BME280;42646;51.910;7.724;2023-04-02T03:01:19;100745.03;;;4.21;100.00
39265;BME280;42646;51.910;7.724;2023-04-02T03:03:53;100740.66;;;4.21;100.00
39265;BME280;42646;51.910;7.724;2023-04-02T03:06:23;100741.56;;;4.20;100.00
39265;BME280;42646;51.910;7.724;2023-04-02T03:09:02;100756.72;;;4.17;100.00
39265;BME280;42646;51.910;7.724;2023-04-02T03:11:38;100760.31;;;4.16;100.00
39265;BME280;42646;51.910;7.724;2023-04-02T03:14:19;100756.06;;;4.13;100.00
39265;BME280;42646;51.910;7.724;2023-04-02T03:16:57;100766.69;;;4.12;100.00
39265;BME280;42646;51.910;7.724;2023-04-02T03:19:30;100768.66;;;4.08;100.00
39265;BME280;42646;51.910;7.724;2023-04-02T03:22:04;100767.53;;;4.12;100.00
39265;BME280;42646;51.910;7.724;2023-04-02T03:24:46;100778.53;;;4.05;100.00
39265;BME280;42646;51.910;7.724;2023-04-02T03:27:19;100781.25;;;4.03;100.00
39265;BME280;42646;51.910;7.724;2023-04-02T03:30:00;100791.97;;;4.00;100.00
39265;BME280;42646;51.910;7.724;2023-04-02T03:32:37;100799.13;;;3.98;100.00
39265;BME280;42646;51.910;7.724;2023-04-02T03:35:17;100800.03;;;3.97;100.00
39265;BME280;42646;51.910;7.724;2023-04-02T03:37:50;100801.94;;;3.95;100.00
39265;BME280;42646;51.910;7.724;2023-04-02T03:40:24;100810.94;;;3.91;100.00
39265;BME280;42646;51.910;7.724;2023-04-02T03:42:57;100814.44;;;3.91;100.00
39265;BME280;42646;51.910;7.724;2023-04-02T03:45:28;100822.50;;;3.88;100.00
39265;BME280;42646;51.910;7.724;2023-04-02T03:48:04;100825.50;;;3.82;100.00
39265;BME280;42646;51.910;7.724;2023-04-02T03:50:40;100829.19;;;3.80;100.00
39265;BME280;42646;51.910;7.724;2023-04-02T03:53:11;100837.72;;;3.83;100.00
39265;BME280;42646;51.910;7.724;2023-04-02T03:55:41;100846.66;;;3.81;100.00
39265;BME280;42646;51.910;7.724;2023-04-02T03:58:12;100850.41;;;3.77;100.00
39265;BME280;42646;51.910;7.724;2023-04-02T04:00:48;100867.38;;;3.71;100.00
39265;BME280;42646;51.910;7.724;2023-04-02T04:03:23;100869.06;;;3.72;100.00
39265;BME280;42646;51.910;7.724;2023-04-02T04:05:58;100871.91;;;3.69;100.00
39265;BME280;42646;51.910;7.724;2023-04-02T04:08:32;100877.91;;;3.71;100.00
39265;BME280;42646;51.910;7.724;2023-04-02T04:11:08;100891.16;;;3.69;100.00
39265;BME280;42646;51.910;7.724;2023-04-02T04:13:41;100890.47;;;3.66;100.00
39265;BME280;42646;51.910;7.724;2023-04-02T04:16:13;100904.41;;;3.68;100.00
39265;BME280;42646;51.910;7.724;2023-04-02T04:18:48;100903.38;;;3.70;100.00
39265;BME280;42646;51.910;7.724;2023-04-02T04:21:20;100915.59;;;3.71;100.00
39265;BME280;42646;51.910;7.724;2023-04-02T04:24:04;100920.84;;;3.71;100.00
39265;BME280;42646;51.910;7.724;2023-04-02T04:26:40;100924.44;;;3.70;100.00
39265;BME280;42646;51.910;7.724;2023-04-02T04:29:18;100923.19;;;3.62;100.00
39265;BME280;42646;51.910;7.724;2023-04-02T04:31:54;100931.38;;;3.56;100.00
39265;BME280;42646;51.910;7.724;2023-04-02T04:34:35;100927.00;;;3.56;100.00
39265;BME280;42646;51.910;7.724;2023-04-02T04:37:16;100939.28;;;3.56;100.00
39265;BME280;42646;51.910;7.724;2023-04-02T04:39:51;100936.00;;;3.52;100.00
39265;BME280;42646;51.910;7.724;2023-04-02T04:42:24;100949.25;;;3.51;100.00
39265;BME280;42646;51.910;7.724;2023-04-02T04:44:59;100954.50;;;3.51;100.00
39265;BME280;42646;51.910;7.724;2023-04-02T04:47:32;100966.88;;;3.48;100.00
39265;BME280;42646;51.910;7.724;2023-04-02T04:50:07;100967.81;;;3.47;100.00
39265;BME280;42646;51.910;7.724;2023-04-02T04:52:39;100974.00;;;3.46;100.00
39265;BME280;42646;51.910;7.724;2023-04-02T04:55:25;100984.69;;;3.43;100.00
39265;BME280;42646;51.910;7.724;2023-04-02T04:58:00;100984.63;;;3.45;100.00
39265;BME280;42646;51.910;7.724;2023-04-02T05:00:41;100990.53;;;3.48;100.00
39265;BME280;42646;51.910;7.724;2023-04-02T05:03:21;100992.91;;;3.37;100.00
39265;BME280;42646;51.910;7.724;2023-04-02T05:06:02;100993.84;;;3.36;100.00
39265;BME280;42646;51.910;7.724;2023-04-02T05:08:32;101000.22;;;3.32;100.00
39265;BME280;42646;51.910;7.724;2023-04-02T05:11:29;101014.97;;;3.35;100.00
39265;BME280;42646;51.910;7.724;2023-04-02T05:14:05;101021.25;;;3.32;100.00
39265;BME280;42646;51.910;7.724;2023-04-02T05:16:37;101024.75;;;3.33;100.00
39265;BME280;42646;51.910;7.724;2023-04-02T05:19:11;101039.66;;;3.32;100.00
39265;BME280;42646;51.910;7.724;2023-04-02T05:21:46;101038.63;;;3.35;100.00
39265;BME280;42646;51.910;7.724;2023-04-02T05:24:42;101053.72;;;3.31;100.00
39265;BME280;42646;51.910;7.724;2023-04-02T05:27:34;101055.50;;;3.31;100.00
39265;BME280;42646;51.910;7.724;2023-04-02T05:30:17;101064.66;;;3.24;100.00
39265;BME280;42646;51.910;7.724;2023-04-02T05:33:02;101074.41;;;3.21;100.00
39265;BME280;42646;51.910;7.724;2023-04-02T05:35:40;101080.44;;;3.24;100.00
39265;BME280;42646;51.910;7.724;2023-04-02T05:38:45;101087.47;;;3.23;100.00
39265;BME280;42646;51.910;7.724;2023-04-02T05:41:31;101097.22;;;3.21;100.00
39265;BME280;42646;51.910;7.724;2023-04-02T05:44:51;101101.22;;;3.28;100.00
39265;BME280;42646;51.910;7.724;2023-04-02T05:47:46;101101.97;;;3.14;100.00
39265;BME280;42646;51.910;7.724;2023-04-02T05:50:24;101111.28;;;3.20;100.00
39265;BME280;42646;51.910;7.724;2023-04-02T05:52:59;101120.19;;;3.17;100.00
39265;BME280;42646;51.910;7.724;2023-04-02T05:55:37;101122.06;;;3.15;100.00
39265;BME280;42646;51.910;7.724;2023-04-02T05:58:14;101122.66;;;3.20;100.00
39265;BME280;42646;51.910;7.724;2023-04-02T06:01:13;101132.47;;;3.17;100.00
39265;BME280;42646;51.910;7.724;2023-04-02T06:03:50;101131.56;;;3.18;100.00
39265;BME280;42646;51.910;7.724;2023-04-02T06:06:27;101143.72;;;3.20;100.00
39265;BME280;42646;51.910;7.724;2023-04-02T06:09:04;101145.16;;;3.26;100.00
39265;BME280;42646;51.910;7.724;2023-04-02T06:11:39;101156.75;;;3.22;100.00
39265;BME280;42646;51.910;7.724;2023-04-02T06:14:15;101160.38;;;3.19;100.00
39265;BME280;42646;51.910;7.724;2023-04-02T06:16:44;101171.91;;;3.17;100.00
39265;BME280;42646;51.910;7.724;2023-04-02T06:19:16;101171.16;;;3.15;100.00
39265;BME280;42646;51.910;7.724;2023-04-02T06:21:57;101177.19;;;3.17;100.00
39265;BME280;42646;51.910;7.724;2023-04-02T06:24:26;101187.84;;;3.14;100.00
39265;BME280;42646;51.910;7.724;2023-04-02T06:27:01;101183.44;;;3.14;100.00
39265;BME280;42646;51.910;7.724;2023-04-02T06:29:34;101200.22;;;3.12;100.00
39265;BME280;42646;51.910;7.724;2023-04-02T06:32:10;101198.34;;;3.14;100.00
39265;BME280;42646;51.910;7.724;2023-04-02T06:34:42;101200.97;;;3.14;100.00
39265;BME280;42646;51.910;7.724;2023-04-02T06:37:21;101205.56;;;3.10;100.00
39265;BME280;42646;51.910;7.724;2023-04-02T06:39:57;101209.97;;;3.10;100.00
39265;BME280;42646;51.910;7.724;2023-04-02T06:42:30;101222.09;;;3.12;100.00
39265;BME280;42646;51.910;7.724;2023-04-02T06:45:31;101228.91;;;3.16;100.00
39265;BME280;42646;51.910;7.724;2023-04-02T06:48:15;101235.94;;;3.16;100.00
39265;BME280;42646;51.910;7.724;2023-04-02T06:50:47;101241.41;;;3.11;100.00
39265;BME280;42646;51.910;7.724;2023-04-02T06:53:21;101241.28;;;3.14;100.00
39265;BME280;42646;51.910;7.724;2023-04-02T06:55:54;101242.34;;;3.10;100.00
39265;BME280;42646;51.910;7.724;2023-04-02T06:58:29;101256.19;;;3.14;100.00
39265;BME280;42646;51.910;7.724;2023-04-02T07:00:58;101257.91;;;3.15;100.00
39265;BME280;42646;51.910;7.724;2023-04-02T07:03:32;101264.56;;;3.22;100.00
39265;BME280;42646;51.910;7.724;2023-04-02T07:06:14;101276.00;;;3.21;100.00
39265;BME280;42646;51.910;7.724;2023-04-02T07:08:44;101277.06;;;3.17;100.00
39265;BME280;42646;51.910;7.724;2023-04-02T07:11:14;101280.47;;;3.19;100.00
39265;BME280;42646;51.910;7.724;2023-04-02T07:13:49;101289.38;;;3.16;100.00
39265;BME280;42646;51.910;7.724;2023-04-02T07:16:20;101293.69;;;3.17;100.00
39265;BME280;42646;51.910;7.724;2023-04-02T07:18:54;101298.88;;;3.19;100.00
39265;BME280;42646;51.910;7.724;2023-04-02T07:21:25;101314.97;;;3.30;100.00
39265;BME280;42646;51.910;7.724;2023-04-02T07:23:55;101322.53;;;3.19;100.00
39265;BME280;42646;51.910;7.724;2023-04-02T07:26:27;101316.22;;;3.23;100.00
39265;BME280;42646;51.910;7.724;2023-04-02T07:28:56;101327.34;;;3.28;100.00
39265;BME280;42646;51.910;7.724;2023-04-02T07:31:25;101326.34;;;3.31;100.00
39265;BME280;42646;51.910;7.724;2023-04-02T07:33:55;101329.13;;;3.28;100.00
39265;BME280;42646;51.910;7.724;2023-04-02T07:36:23;101335.25;;;3.28;100.00
39265;BME280;42646;51.910;7.724;2023-04-02T07:38:51;101338.81;;;3.27;100.00
39265;BME280;42646;51.910;7.724;2023-04-02T07:41:20;101346.53;;;3.30;100.00
39265;BME280;42646;51.910;7.724;2023-04-02T07:43:48;101346.44;;;3.32;100.00
39265;BME280;42646;51.910;7.724;2023-04-02T07:46:42;101354.28;;;3.33;100.00
39265;BME280;42646;51.910;7.724;2023-04-02T07:49:11;101358.75;;;3.31;100.00
39265;BME280;42646;51.910;7.724;2023-04-02T07:51:38;101367.44;;;3.33;100.00
39265;BME280;42646;51.910;7.724;2023-04-02T07:54:07;101363.66;;;3.39;100.00
39265;BME280;42646;51.910;7.724;2023-04-02T07:56:36;101369.28;;;3.48;100.00
39265;BME280;42646;51.910;7.724;2023-04-02T07:59:05;101377.97;;;3.51;100.00
39265;BME280;42646;51.910;7.724;2023-04-02T08:01:33;101384.84;;;3.53;100.00
39265;BME280;42646;51.910;7.724;2023-04-02T08:04:04;101387.91;;;3.63;99.68
39265;BME280;42646;51.910;7.724;2023-04-02T08:06:33;101385.28;;;3.63;98.81
39265;BME280;42646;51.910;7.724;2023-04-02T08:09:02;101386.41;;;3.57;98.67
39265;BME280;42646;51.910;7.724;2023-04-02T08:11:29;101385.00;;;3.67;98.68
39265;BME280;42646;51.910;7.724;2023-04-02T08:13:57;101400.50;;;3.73;96.98
39265;BME280;42646;51.910;7.724;2023-04-02T08:16:25;101405.72;;;3.75;96.62
39265;BME280;42646;51.910;7.724;2023-04-02T08:18:53;101410.66;;;3.81;95.93
39265;BME280;42646;51.910;7.724;2023-04-02T08:21:26;101416.06;;;3.78;96.19
39265;BME280;42646;51.910;7.724;2023-04-02T08:23:54;101415.75;;;3.84;96.03
39265;BME280;42646;51.910;7.724;2023-04-02T08:26:22;101425.31;;;3.87;94.99
39265;BME280;42646;51.910;7.724;2023-04-02T08:28:49;101431.56;;;3.84;95.01
39265;BME280;42646;51.910;7.724;2023-04-02T08:31:18;101434.97;;;3.86;95.52
39265;BME280;42646;51.910;7.724;2023-04-02T08:33:45;101442.47;;;3.94;95.07
39265;BME280;42646;51.910;7.724;2023-04-02T08:36:14;101445.03;;;3.95;95.01
39265;BME280;42646;51.910;7.724;2023-04-02T08:38:45;101452.94;;;3.95;95.79
39265;BME280;42646;51.910;7.724;2023-04-02T08:41:19;101446.50;;;4.01;95.37
39265;BME280;42646;51.910;7.724;2023-04-02T08:44:16;101453.66;;;3.99;95.55
39265;BME280;42646;51.910;7.724;2023-04-02T08:46:47;101453.34;;;4.05;96.09
39265;BME280;42646;51.910;7.724;2023-04-02T08:49:20;101458.28;;;4.11;95.27
39265;BME280;42646;51.910;7.724;2023-04-02T08:51:52;101467.88;;;4.12;95.28
39265;BME280;42646;51.910;7.724;2023-04-02T08:54:26;101470.28;;;4.17;94.83
39265;BME280;42646;51.910;7.724;2023-04-02T08:56:59;101478.75;;;4.23;95.18
39265;BME280;42646;51.910;7.724;2023-04-02T08:59:32;101488.13;;;4.29;93.94
39265;BME280;42646;51.910;7.724;2023-04-02T09:02:19;101495.63;;;4.37;92.51
39265;BME280;42646;51.910;7.724;2023-04-02T09:04:53;101488.75;;;4.34;91.09
39265;BME280;42646;51.910;7.724;2023-04-02T09:07:23;101495.47;;;4.40;89.96
39265;BME280;42646;51.910;7.724;2023-04-02T09:09:53;101502.59;;;4.38;89.04
39265;BME280;42646;51.910;7.724;2023-04-02T09:12:25;101515.44;;;4.26;88.53
39265;BME280;42646;51.910;7.724;2023-04-02T09:15:03;101514.81;;;4.39;87.87
39265;BME280;42646;51.910;7.724;2023-04-02T09:17:34;101543.03;;;4.37;88.05
39265;BME280;42646;51.910;7.724;2023-04-02T09:20:21;101522.91;;;4.36;86.28
39265;BME280;42646;51.910;7.724;2023-04-02T09:22:51;101531.50;;;4.39;86.55
39265;BME280;42646;51.910;7.724;2023-04-02T09:25:23;101526.56;;;4.33;86.96
39265;BME280;42646;51.910;7.724;2023-04-02T09:27:54;101522.91;;;4.36;87.60
39265;BME280;42646;51.910;7.724;2023-04-02T09:30:32;101532.19;;;4.43;87.85
39265;BME280;42646;51.910;7.724;2023-04-02T09:33:03;101534.59;;;4.47;88.36
39265;BME280;42646;51.910;7.724;2023-04-02T09:35:35;101533.97;;;4.60;88.34
39265;BME280;42646;51.910;7.724;2023-04-02T09:38:20;101539.88;;;4.65;87.09
39265;BME280;42646;51.910;7.724;2023-04-02T09:40:57;101547.69;;;4.66;87.49
39265;BME280;42646;51.910;7.724;2023-04-02T09:43:26;101560.78;;;4.68;87.37
39265;BME280;42646;51.910;7.724;2023-04-02T09:45:57;101557.06;;;4.72;86.64
39265;BME280;42646;51.910;7.724;2023-04-02T09:48:27;101570.84;;;4.77;86.10
39265;BME280;42646;51.910;7.724;2023-04-02T09:51:12;101568.44;;;4.72;84.96
39265;BME280;42646;51.910;7.724;2023-04-02T09:53:42;101568.31;;;4.75;85.29
39265;BME280;42646;51.910;7.724;2023-04-02T09:56:16;101576.28;;;4.74;84.58
39265;BME280;42646;51.910;7.724;2023-04-02T09:58:45;101582.34;;;4.76;84.32
39265;BME280;42646;51.910;7.724;2023-04-02T10:01:33;101583.81;;;4.81;83.85
39265;BME280;42646;51.910;7.724;2023-04-02T10:04:03;101592.56;;;4.82;84.38
39265;BME280;42646;51.910;7.724;2023-04-02T10:06:33;101590.56;;;4.87;84.50
39265;BME280;42646;51.910;7.724;2023-04-02T10:09:19;101599.22;;;4.89;84.06
39265;BME280;42646;51.910;7.724;2023-04-02T10:11:50;101597.31;;;4.93;84.30
39265;BME280;42646;51.910;7.724;2023-04-02T10:14:23;101602.41;;;4.96;84.90
39265;BME280;42646;51.910;7.724;2023-04-02T10:16:55;101611.47;;;5.07;84.59
39265;BME280;42646;51.910;7.724;2023-04-02T10:19:28;101611.91;;;5.16;84.99
39265;BME280;42646;51.910;7.724;2023-04-02T10:22:00;101616.09;;;5.20;83.82
39265;BME280;42646;51.910;7.724;2023-04-02T10:24:31;101621.28;;;5.21;83.65
39265;BME280;42646;51.910;7.724;2023-04-02T10:27:13;101629.50;;;5.32;83.28
39265;BME280;42646;51.910;7.724;2023-04-02T10:29:54;101636.22;;;5.38;82.62
39265;BME280;42646;51.910;7.724;2023-04-02T10:32:31;101628.09;;;5.43;82.41
39265;BME280;42646;51.910;7.724;2023-04-02T10:35:04;101639.34;;;5.46;81.67
39265;BME280;42646;51.910;7.724;2023-04-02T10:37:47;101649.91;;;5.46;81.52
39265;BME280;42646;51.910;7.724;2023-04-02T10:40:20;101648.63;;;5.53;82.02
39265;BME280;42646;51.910;7.724;2023-04-02T10:43:02;101652.88;;;5.56;82.13
39265;BME280;42646;51.910;7.724;2023-04-02T10:45:39;101649.75;;;5.65;81.98
39265;BME280;42646;51.910;7.724;2023-04-02T10:48:14;101657.59;;;5.67;81.20
39265;BME280;42646;51.910;7.724;2023-04-02T10:50:49;101666.13;;;5.72;80.11
39265;BME280;42646;51.910;7.724;2023-04-02T10:53:29;101658.97;;;5.74;80.14
39265;BME280;42646;51.910;7.724;2023-04-02T10:56:02;101661.53;;;5.75;80.38
39265;BME280;42646;51.910;7.724;2023-04-02T10:58:38;101664.38;;;5.88;78.61
39265;BME280;42646;51.910;7.724;2023-04-02T11:01:14;101658.78;;;5.94;79.53
39265;BME280;42646;51.910;7.724;2023-04-02T11:03:47;101667.72;;;6.07;80.16
39265;BME280;42646;51.910;7.724;2023-04-02T11:06:25;101665.75;;;6.27;79.15
39265;BME280;42646;51.910;7.724;2023-04-02T11:08:56;101662.44;;;6.39;76.56
39265;BME280;42646;51.910;7.724;2023-04-02T11:11:30;101677.09;;;6.45;76.32
39265;BME280;42646;51.910;7.724;2023-04-02T11:14:02;101669.75;;;6.50;76.33
39265;BME280;42646;51.910;7.724;2023-04-02T11:16:36;101673.16;;;6.52;76.57
39265;BME280;42646;51.910;7.724;2023-04-02T11:19:23;101656.34;;;6.68;76.65
39265;BME280;42646;51.910;7.724;2023-04-02T11:21:52;101663.75;;;6.78;75.38
39265;BME280;42646;51.910;7.724;2023-04-02T11:24:44;101674.91;;;6.83;75.74
39265;BME280;42646;51.910;7.724;2023-04-02T11:27:25;101671.22;;;6.85;74.89
39265;BME280;42646;51.910;7.724;2023-04-02T11:30:02;101672.84;;;6.88;75.04
39265;BME280;42646;51.910;7.724;2023-04-02T11:32:37;101686.63;;;6.93;74.48
39265;BME280;42646;51.910;7.724;2023-04-02T11:35:34;101684.09;;;6.91;73.80
39265;BME280;42646;51.910;7.724;2023-04-02T11:41:12;101690.28;;;6.76;73.93
39265;BME280;42646;51.910;7.724;2023-04-02T11:43:48;101698.22;;;6.76;74.04
39265;BME280;42646;51.910;7.724;2023-04-02T11:46:41;101700.78;;;6.78;74.03
39265;BME280;42646;51.910;7.724;2023-04-02T11:49:36;101707.06;;;6.75;73.41
39265;BME280;42646;51.910;7.724;2023-04-02T11:52:26;101715.84;;;6.76;73.13
39265;BME280;42646;51.910;7.724;2023-04-02T11:55:19;101724.06;;;6.71;72.54
39265;BME280;42646;51.910;7.724;2023-04-02T12:00:59;101714.16;;;6.75;73.26
39265;BME280;42646;51.910;7.724;2023-04-02T12:03:47;101737.59;;;6.81;73.61
39265;BME280;42646;51.910;7.724;2023-04-02T12:06:18;101740.69;;;6.89;73.04
39265;BME280;42646;51.910;7.724;2023-04-02T12:08:58;101749.88;;;6.82;72.97
39265;BME280;42646;51.910;7.724;2023-04-02T12:11:32;101750.41;;;6.88;73.63
39265;BME280;42646;51.910;7.724;2023-04-02T12:14:02;101756.97;;;6.97;72.21
39265;BME280;42646;51.910;7.724;2023-04-02T12:16:34;101761.22;;;7.00;72.11
39265;BME280;42646;51.910;7.724;2023-04-02T12:19:07;101758.66;;;6.98;71.20
39265;BME280;42646;51.910;7.724;2023-04-02T12:21:36;101754.19;;;7.14;70.51
39265;BME280;42646;51.910;7.724;2023-04-02T12:24:05;101761.16;;;7.01;70.52
39265;BME280;42646;51.910;7.724;2023-04-02T12:26:34;101757.44;;;7.04;70.95
39265;BME280;42646;51.910;7.724;2023-04-02T12:29:22;101762.66;;;7.05;72.08
39265;BME280;42646;51.910;7.724;2023-04-02T12:31:52;101764.28;;;7.08;72.22
39265;BME280;42646;51.910;7.724;2023-04-02T12:34:23;101772.03;;;7.11;71.38
39265;BME280;42646;51.910;7.724;2023-04-02T12:36:53;101772.81;;;7.13;71.45
39265;BME280;42646;51.910;7.724;2023-04-02T12:39:21;101770.22;;;7.11;70.98
39265;BME280;42646;51.910;7.724;2023-04-02T12:41:53;101769.97;;;7.16;71.06
39265;BME280;42646;51.910;7.724;2023-04-02T12:44:23;101775.59;;;7.26;70.54
39265;BME280;42646;51.910;7.724;2023-04-02T12:46:54;101780.53;;;7.32;70.20
39265;BME280;42646;51.910;7.724;2023-04-02T12:49:34;101782.06;;;7.36;68.96
39265;BME280;42646;51.910;7.724;2023-04-02T12:52:05;101777.03;;;7.31;69.06
39265;BME280;42646;51.910;7.724;2023-04-02T12:54:35;101783.56;;;7.40;70.11
39265;BME280;42646;51.910;7.724;2023-04-02T12:57:37;101785.00;;;7.45;70.62
39265;BME280;42646;51.910;7.724;2023-04-02T13:00:29;101792.50;;;7.53;71.41
39265;BME280;42646;51.910;7.724;2023-04-02T13:02:59;101780.50;;;7.62;69.57
39265;BME280;42646;51.910;7.724;2023-04-02T13:05:33;101801.22;;;7.55;68.74
39265;BME280;42646;51.910;7.724;2023-04-02T13:08:02;101797.97;;;7.50;68.40
39265;BME280;42646;51.910;7.724;2023-04-02T13:10:31;101799.38;;;7.41;67.82
39265;BME280;42646;51.910;7.724;2023-04-02T13:13:00;101807.94;;;7.31;68.36
39265;BME280;42646;51.910;7.724;2023-04-02T13:15:30;101808.91;;;7.30;68.01
39265;BME280;42646;51.910;7.724;2023-04-02T13:18:04;101804.50;;;7.29;68.13
39265;BME280;42646;51.910;7.724;2023-04-02T13:20:36;101808.53;;;7.36;68.65
39265;BME280;42646;51.910;7.724;2023-04-02T13:23:29;101805.88;;;7.36;70.79
39265;BME280;42646;51.910;7.724;2023-04-02T13:25:59;101814.91;;;7.47;69.99
39265;BME280;42646;51.910;7.724;2023-04-02T13:28:28;101809.91;;;7.57;69.06
39265;BME280;42646;51.910;7.724;2023-04-02T13:30:56;101807.09;;;7.60;67.69
39265;BME280;42646;51.910;7.724;2023-04-02T13:33:23;101807.25;;;7.57;68.18
39265;BME280;42646;51.910;7.724;2023-04-02T13:35:53;101807.03;;;7.46;67.91
39265;BME280;42646;51.910;7.724;2023-04-02T13:38:21;101811.47;;;7.45;68.37
39265;BME280;42646;51.910;7.724;2023-04-02T13:40:49;101816.97;;;7.42;68.63
39265;BME280;42646;51.910;7.724;2023-04-02T13:43:18;101824.13;;;7.40;68.36
39265;BME280;42646;51.910;7.724;2023-04-02T13:45:49;101834.22;;;7.34;68.51
39265;BME280;42646;51.910;7.724;2023-04-02T13:48:18;101818.44;;;7.32;68.54
39265;BME280;42646;51.910;7.724;2023-04-02T13:50:51;101814.09;;;7.31;68.99